VLG65IN LEAL-LEPA
Flight info
| Callsign | VLG65IN |
|---|---|
| Flight time | 0h 37m |
| Altitude | 24000 |
| Route | MITOS N851 RUXET |
| Aircraft | A320/M-SDE3FGHIRWY/LB1 |
Departure
| Time | 2026-05-04 15:16 |
|---|---|
| Airport | Alicante-Elche Miguel Hernández Airport (LEAL) |
Arrival
| Time | 2026-05-04 15:53 |
|---|---|
| Airport | Palma de Mallorca Airport (LEPA) |
| Time | Latitude | Longitude | Altitude | Speed | Heading |
|---|---|---|---|---|---|
| 2026-05-04 14:51 | 38.28531 | -0.55277 | 88 ft | 0 kts | 10° |
| 2026-05-04 15:07 | 38.28523 | -0.55278 | 90 ft | 2 kts | 9° |
| 2026-05-04 15:07 | 38.28507 | -0.55282 | 88 ft | 2 kts | 10° |
| 2026-05-04 15:07 | 38.28490 | -0.55286 | 89 ft | 2 kts | 3° |
| 2026-05-04 15:07 | 38.28474 | -0.55284 | 91 ft | 2 kts | 335° |
| 2026-05-04 15:08 | 38.28460 | -0.55273 | 91 ft | 2 kts | 315° |
| 2026-05-04 15:08 | 38.28450 | -0.55258 | 113 ft | 2 kts | 291° |
| 2026-05-04 15:08 | 38.28448 | -0.55252 | 106 ft | 0 kts | 282° |
| 2026-05-04 15:10 | 38.28448 | -0.55256 | 114 ft | 2 kts | 282° |
| 2026-05-04 15:11 | 38.28455 | -0.55303 | 113 ft | 8 kts | 280° |
| 2026-05-04 15:11 | 38.28468 | -0.55402 | 92 ft | 14 kts | 279° |
| 2026-05-04 15:11 | 38.28487 | -0.55531 | 98 ft | 14 kts | 281° |
| 2026-05-04 15:11 | 38.28450 | -0.55602 | 98 ft | 12 kts | 190° |
| 2026-05-04 15:12 | 38.28376 | -0.55635 | 99 ft | 11 kts | 243° |
| 2026-05-04 15:12 | 38.28385 | -0.55747 | 101 ft | 16 kts | 280° |
| 2026-05-04 15:12 | 38.28408 | -0.55912 | 105 ft | 20 kts | 280° |
| 2026-05-04 15:12 | 38.28435 | -0.56106 | 108 ft | 25 kts | 279° |
| 2026-05-04 15:13 | 38.28469 | -0.56346 | 112 ft | 28 kts | 280° |
| 2026-05-04 15:13 | 38.28502 | -0.56584 | 118 ft | 28 kts | 280° |
| 2026-05-04 15:13 | 38.28536 | -0.56827 | 128 ft | 27 kts | 280° |
| 2026-05-04 15:13 | 38.28567 | -0.57048 | 138 ft | 25 kts | 280° |
| 2026-05-04 15:14 | 38.28595 | -0.57239 | 146 ft | 19 kts | 279° |
| 2026-05-04 15:14 | 38.28610 | -0.57393 | 152 ft | 16 kts | 257° |
| 2026-05-04 15:14 | 38.28546 | -0.57431 | 154 ft | 6 kts | 188° |
| 2026-05-04 15:14 | 38.28543 | -0.57432 | 154 ft | 0 kts | 188° |
| 2026-05-04 15:15 | 38.28541 | -0.57432 | 154 ft | 1 kts | 189° |
| 2026-05-04 15:15 | 38.28508 | -0.57439 | 155 ft | 8 kts | 189° |
| 2026-05-04 15:15 | 38.28443 | -0.57432 | 154 ft | 11 kts | 118° |
| 2026-05-04 15:16 | 38.28298 | -0.56398 | 115 ft | 124 kts | 100° |
| 2026-05-04 15:16 | 38.28127 | -0.55113 | 209 ft | 160 kts | 103° |
| 2026-05-04 15:16 | 38.27701 | -0.52359 | 1337 ft | 170 kts | 106° |
| 2026-05-04 15:17 | 38.27427 | -0.50806 | 1714 ft | 188 kts | 102° |
| 2026-05-04 15:17 | 38.28248 | -0.47422 | 2616 ft | 224 kts | 56° |
| 2026-05-04 15:17 | 38.29158 | -0.45675 | 3079 ft | 249 kts | 56° |
| 2026-05-04 15:18 | 38.30161 | -0.43757 | 3631 ft | 271 kts | 55° |
| 2026-05-04 15:18 | 38.31230 | -0.41720 | 4491 ft | 280 kts | 55° |
| 2026-05-04 15:18 | 38.32194 | -0.39551 | 5457 ft | 285 kts | 66° |
| 2026-05-04 15:19 | 38.33648 | -0.34747 | 7286 ft | 296 kts | 68° |
| 2026-05-04 15:19 | 38.34409 | -0.32293 | 8198 ft | 299 kts | 67° |
| 2026-05-04 15:19 | 38.36074 | -0.27334 | 9928 ft | 310 kts | 65° |
| 2026-05-04 15:20 | 38.36986 | -0.24792 | 10548 ft | 322 kts | 64° |
| 2026-05-04 15:20 | 38.37965 | -0.22128 | 10965 ft | 342 kts | 65° |
| 2026-05-04 15:20 | 38.38971 | -0.19317 | 11364 ft | 359 kts | 66° |
| 2026-05-04 15:20 | 38.39992 | -0.16364 | 12026 ft | 366 kts | 66° |
| 2026-05-04 15:21 | 38.41005 | -0.13351 | 12749 ft | 372 kts | 67° |
| 2026-05-04 15:21 | 38.42007 | -0.10317 | 13468 ft | 378 kts | 68° |
| 2026-05-04 15:21 | 38.44062 | -0.04049 | 14748 ft | 388 kts | 68° |
| 2026-05-04 15:22 | 38.45127 | -0.00815 | 15375 ft | 393 kts | 68° |
| 2026-05-04 15:22 | 38.46168 | 0.02378 | 15991 ft | 397 kts | 68° |
| 2026-05-04 15:22 | 38.48292 | 0.08971 | 17230 ft | 406 kts | 68° |
| 2026-05-04 15:23 | 38.49367 | 0.12328 | 17850 ft | 411 kts | 68° |
| 2026-05-04 15:23 | 38.50450 | 0.15722 | 18443 ft | 416 kts | 68° |
| 2026-05-04 15:23 | 38.51547 | 0.19163 | 18968 ft | 420 kts | 68° |
| 2026-05-04 15:23 | 38.52656 | 0.22634 | 19522 ft | 425 kts | 68° |
| 2026-05-04 15:24 | 38.54914 | 0.29697 | 20603 ft | 434 kts | 69° |
| 2026-05-04 15:24 | 38.57212 | 0.36906 | 21626 ft | 443 kts | 69° |
| 2026-05-04 15:25 | 38.58376 | 0.40567 | 22104 ft | 447 kts | 69° |
| 2026-05-04 15:25 | 38.59553 | 0.44269 | 22604 ft | 451 kts | 69° |
| 2026-05-04 15:25 | 38.60737 | 0.48003 | 23105 ft | 455 kts | 69° |
| 2026-05-04 15:26 | 38.63132 | 0.55574 | 23845 ft | 462 kts | 70° |
| 2026-05-04 15:26 | 38.63928 | 0.58097 | 23895 ft | 460 kts | 70° |
| 2026-05-04 15:26 | 38.66245 | 0.65485 | 23922 ft | 440 kts | 72° |
| 2026-05-04 15:27 | 38.67059 | 0.69231 | 23921 ft | 436 kts | 83° |
| 2026-05-04 15:27 | 38.67912 | 0.76909 | 23921 ft | 434 kts | 86° |
| 2026-05-04 15:28 | 38.68774 | 0.84605 | 23929 ft | 447 kts | 85° |
| 2026-05-04 15:28 | 38.69221 | 0.88591 | 23927 ft | 456 kts | 85° |
| 2026-05-04 15:28 | 38.70110 | 0.96664 | 23926 ft | 459 kts | 86° |
| 2026-05-04 15:29 | 38.70552 | 1.00712 | 23934 ft | 459 kts | 86° |
| 2026-05-04 15:30 | 38.72309 | 1.16863 | 23944 ft | 459 kts | 86° |
| 2026-05-04 15:30 | 38.73603 | 1.29015 | 23949 ft | 459 kts | 86° |
| 2026-05-04 15:31 | 38.74472 | 1.37168 | 23949 ft | 460 kts | 86° |
| 2026-05-04 15:31 | 38.74900 | 1.41185 | 23951 ft | 460 kts | 86° |
| 2026-05-04 15:32 | 38.76183 | 1.53394 | 23953 ft | 460 kts | 86° |
| 2026-05-04 15:32 | 38.77031 | 1.61522 | 23955 ft | 460 kts | 86° |
| 2026-05-04 15:33 | 38.77864 | 1.69642 | 23955 ft | 460 kts | 86° |
| 2026-05-04 15:34 | 38.79118 | 1.81869 | 23955 ft | 461 kts | 86° |
| 2026-05-04 15:34 | 38.79529 | 1.85882 | 23955 ft | 461 kts | 85° |
| 2026-05-04 15:34 | 38.81467 | 1.93748 | 23954 ft | 467 kts | 64° |
| 2026-05-04 15:35 | 38.85161 | 2.00589 | 23956 ft | 467 kts | 51° |
| 2026-05-04 15:35 | 38.87148 | 2.03841 | 23746 ft | 459 kts | 51° |
| 2026-05-04 15:35 | 38.89092 | 2.07052 | 23470 ft | 452 kts | 51° |
| 2026-05-04 15:36 | 38.92899 | 2.13386 | 22495 ft | 446 kts | 51° |
| 2026-05-04 15:36 | 38.94791 | 2.16530 | 21969 ft | 444 kts | 51° |
| 2026-05-04 15:36 | 38.96676 | 2.19656 | 21444 ft | 441 kts | 51° |
| 2026-05-04 15:37 | 38.98549 | 2.22765 | 20853 ft | 436 kts | 51° |
| 2026-05-04 15:37 | 39.00373 | 2.25802 | 20280 ft | 423 kts | 51° |
| 2026-05-04 15:37 | 39.02155 | 2.28773 | 19727 ft | 417 kts | 50° |
| 2026-05-04 15:37 | 39.03915 | 2.31702 | 19183 ft | 411 kts | 50° |
| 2026-05-04 15:38 | 39.05653 | 2.34595 | 18659 ft | 405 kts | 50° |
| 2026-05-04 15:38 | 39.07358 | 2.37434 | 18191 ft | 398 kts | 50° |
| 2026-05-04 15:38 | 39.09033 | 2.40227 | 17658 ft | 391 kts | 50° |
| 2026-05-04 15:38 | 39.10678 | 2.42974 | 17124 ft | 384 kts | 50° |
| 2026-05-04 15:39 | 39.12278 | 2.45654 | 16627 ft | 371 kts | 51° |
| 2026-05-04 15:39 | 39.13828 | 2.48253 | 16114 ft | 361 kts | 51° |
| 2026-05-04 15:39 | 39.17183 | 2.52825 | 15138 ft | 346 kts | 32° |
| 2026-05-04 15:40 | 39.19166 | 2.54549 | 14655 ft | 343 kts | 31° |
| 2026-05-04 15:40 | 39.21146 | 2.56256 | 14184 ft | 341 kts | 31° |
| 2026-05-04 15:40 | 39.23107 | 2.57961 | 13714 ft | 338 kts | 31° |
| 2026-05-04 15:40 | 39.25038 | 2.59649 | 13190 ft | 333 kts | 31° |
| 2026-05-04 15:41 | 39.26943 | 2.61316 | 12670 ft | 330 kts | 31° |
| 2026-05-04 15:41 | 39.28839 | 2.62976 | 12166 ft | 328 kts | 32° |
| 2026-05-04 15:41 | 39.30443 | 2.64379 | 11742 ft | 326 kts | 31° |
| 2026-05-04 15:41 | 39.32316 | 2.66014 | 11250 ft | 324 kts | 32° |
| 2026-05-04 15:42 | 39.34179 | 2.67639 | 10767 ft | 322 kts | 32° |
| 2026-05-04 15:42 | 39.36031 | 2.69260 | 10278 ft | 319 kts | 32° |
| 2026-05-04 15:42 | 39.37858 | 2.70863 | 9779 ft | 316 kts | 32° |
| 2026-05-04 15:42 | 39.39675 | 2.72460 | 9233 ft | 315 kts | 32° |
| 2026-05-04 15:43 | 39.41480 | 2.74050 | 8751 ft | 313 kts | 32° |
| 2026-05-04 15:43 | 39.43122 | 2.75861 | 8268 ft | 311 kts | 52° |
| 2026-05-04 15:43 | 39.44264 | 2.78210 | 7796 ft | 307 kts | 61° |
| 2026-05-04 15:43 | 39.45289 | 2.80616 | 7311 ft | 302 kts | 62° |
| 2026-05-04 15:44 | 39.46269 | 2.82998 | 6829 ft | 297 kts | 63° |
| 2026-05-04 15:44 | 39.47220 | 2.85348 | 6348 ft | 293 kts | 63° |
| 2026-05-04 15:44 | 39.48158 | 2.87671 | 5850 ft | 289 kts | 63° |
| 2026-05-04 15:44 | 39.49086 | 2.89960 | 5371 ft | 284 kts | 63° |
| 2026-05-04 15:45 | 39.49991 | 2.92199 | 4970 ft | 277 kts | 63° |
| 2026-05-04 15:45 | 39.50874 | 2.94392 | 4569 ft | 273 kts | 63° |
| 2026-05-04 15:45 | 39.51751 | 2.96587 | 4166 ft | 276 kts | 63° |
| 2026-05-04 15:45 | 39.52845 | 2.98610 | 3757 ft | 276 kts | 41° |
| 2026-05-04 15:46 | 39.54348 | 3.00087 | 3404 ft | 266 kts | 33° |
| 2026-05-04 15:46 | 39.55867 | 3.01415 | 3155 ft | 261 kts | 32° |
| 2026-05-04 15:46 | 39.57362 | 3.02697 | 2997 ft | 253 kts | 32° |
| 2026-05-04 15:46 | 39.58803 | 3.03888 | 2980 ft | 240 kts | 24° |
| 2026-05-04 15:47 | 39.60393 | 3.04352 | 2993 ft | 233 kts | 357° |
| 2026-05-04 15:47 | 39.62005 | 3.04305 | 2986 ft | 230 kts | 353° |
| 2026-05-04 15:47 | 39.63480 | 3.03834 | 2981 ft | 212 kts | 322° |
| 2026-05-04 15:47 | 39.64456 | 3.02494 | 2994 ft | 203 kts | 297° |
| 2026-05-04 15:48 | 39.65140 | 3.00893 | 2989 ft | 202 kts | 290° |
| 2026-05-04 15:48 | 39.65505 | 2.99164 | 2995 ft | 198 kts | 270° |
| 2026-05-04 15:48 | 39.64807 | 2.95852 | 2997 ft | 191 kts | 237° |
| 2026-05-04 15:49 | 39.64114 | 2.94382 | 2986 ft | 191 kts | 237° |
| 2026-05-04 15:49 | 39.63436 | 2.92937 | 2929 ft | 186 kts | 237° |
| 2026-05-04 15:49 | 39.62773 | 2.91524 | 2742 ft | 181 kts | 237° |
| 2026-05-04 15:49 | 39.62137 | 2.90170 | 2537 ft | 171 kts | 238° |
| 2026-05-04 15:50 | 39.61530 | 2.88879 | 2311 ft | 164 kts | 238° |
| 2026-05-04 15:50 | 39.60945 | 2.87637 | 2090 ft | 158 kts | 238° |
| 2026-05-04 15:50 | 39.60389 | 2.86455 | 1886 ft | 153 kts | 239° |
| 2026-05-04 15:50 | 39.59836 | 2.85280 | 1695 ft | 150 kts | 237° |
| 2026-05-04 15:51 | 39.59295 | 2.84132 | 1487 ft | 148 kts | 237° |
| 2026-05-04 15:51 | 39.58761 | 2.82997 | 1297 ft | 147 kts | 237° |
| 2026-05-04 15:51 | 39.58234 | 2.81879 | 1092 ft | 145 kts | 237° |
| 2026-05-04 15:51 | 39.57703 | 2.80746 | 931 ft | 150 kts | 235° |
| 2026-05-04 15:52 | 39.57165 | 2.79605 | 676 ft | 144 kts | 235° |
| 2026-05-04 15:52 | 39.56653 | 2.78523 | 462 ft | 139 kts | 237° |
| 2026-05-04 15:52 | 39.56153 | 2.77462 | 307 ft | 138 kts | 237° |
| 2026-05-04 15:52 | 39.55657 | 2.76405 | 141 ft | 136 kts | 236° |
| 2026-05-04 15:53 | 39.55191 | 2.75424 | 41 ft | 116 kts | 237° |
| 2026-05-04 15:53 | 39.54837 | 2.74674 | 38 ft | 74 kts | 238° |
| 2026-05-04 15:53 | 39.54620 | 2.74213 | 38 ft | 51 kts | 239° |
| 2026-05-04 15:53 | 39.54551 | 2.73934 | 38 ft | 22 kts | 265° |
| 2026-05-04 15:54 | 39.54551 | 2.73802 | 38 ft | 4 kts | 272° |
| 2026-05-04 15:54 | 39.54551 | 2.73800 | 38 ft | 1 kts | 272° |
| 2026-05-04 15:54 | 39.54551 | 2.73781 | 38 ft | 4 kts | 271° |
| 2026-05-04 15:54 | 39.54571 | 2.73746 | 38 ft | 6 kts | 339° |
| 2026-05-04 15:55 | 39.54617 | 2.73769 | 38 ft | 9 kts | 46° |
| 2026-05-04 15:55 | 39.54656 | 2.73847 | 38 ft | 12 kts | 58° |
| 2026-05-04 15:55 | 39.54702 | 2.73944 | 38 ft | 11 kts | 58° |
| 2026-05-04 15:55 | 39.54766 | 2.73934 | 38 ft | 12 kts | 304° |
| 2026-05-04 15:56 | 39.54734 | 2.73834 | 38 ft | 14 kts | 237° |
| 2026-05-04 15:56 | 39.54681 | 2.73717 | 38 ft | 16 kts | 240° |
| 2026-05-04 15:56 | 39.54642 | 2.73627 | 37 ft | 10 kts | 241° |
| 2026-05-04 15:56 | 39.54627 | 2.73590 | 37 ft | 8 kts | 245° |
| 2026-05-04 15:57 | 39.54661 | 2.73524 | 38 ft | 6 kts | 323° |
| 2026-05-04 15:57 | 39.54655 | 2.73457 | 38 ft | 7 kts | 257° |
| 2026-05-04 15:57 | 39.54651 | 2.73429 | 38 ft | 2 kts | 258° |
| 2026-05-04 15:57 | 39.54650 | 2.73425 | 38 ft | 0 kts | 258° |